sensor_id;sensor_type;location;lat;lon;timestamp;P1;durP1;ratioP1;P2;durP2;ratioP2
37409;SDS011;23275;48.914;12.566;2022-08-19T00:00:32;12.30;;;10.50;;
37409;SDS011;23275;48.914;12.566;2022-08-19T00:02:57;13.88;;;10.77;;
37409;SDS011;23275;48.914;12.566;2022-08-19T00:05:23;12.75;;;11.23;;
37409;SDS011;23275;48.914;12.566;2022-08-19T00:07:49;13.55;;;11.15;;
37409;SDS011;23275;48.914;12.566;2022-08-19T00:10:16;13.57;;;11.57;;
37409;SDS011;23275;48.914;12.566;2022-08-19T00:12:43;15.30;;;12.13;;
37409;SDS011;23275;48.914;12.566;2022-08-19T00:15:10;13.88;;;12.35;;
37409;SDS011;23275;48.914;12.566;2022-08-19T00:17:39;14.38;;;12.40;;
37409;SDS011;23275;48.914;12.566;2022-08-19T00:20:07;14.55;;;11.88;;
37409;SDS011;23275;48.914;12.566;2022-08-19T00:22:35;16.10;;;12.70;;
37409;SDS011;23275;48.914;12.566;2022-08-19T00:25:02;14.73;;;13.23;;
37409;SDS011;23275;48.914;12.566;2022-08-19T00:27:28;14.30;;;12.90;;
37409;SDS011;23275;48.914;12.566;2022-08-19T00:29:54;15.10;;;13.27;;
37409;SDS011;23275;48.914;12.566;2022-08-19T00:32:19;16.27;;;13.63;;
37409;SDS011;23275;48.914;12.566;2022-08-19T00:34:45;15.57;;;13.70;;
37409;SDS011;23275;48.914;12.566;2022-08-19T00:37:11;16.00;;;13.50;;
37409;SDS011;23275;48.914;12.566;2022-08-19T00:39:36;15.38;;;13.82;;
37409;SDS011;23275;48.914;12.566;2022-08-19T00:42:02;18.17;;;13.80;;
37409;SDS011;23275;48.914;12.566;2022-08-19T00:44:28;16.48;;;13.25;;
37409;SDS011;23275;48.914;12.566;2022-08-19T00:46:56;20.92;;;14.43;;
37409;SDS011;23275;48.914;12.566;2022-08-19T00:49:31;15.75;;;12.95;;
37409;SDS011;23275;48.914;12.566;2022-08-19T00:52:03;16.02;;;14.40;;
37409;SDS011;23275;48.914;12.566;2022-08-19T00:54:32;15.57;;;13.65;;
37409;SDS011;23275;48.914;12.566;2022-08-19T00:56:58;14.75;;;13.35;;
37409;SDS011;23275;48.914;12.566;2022-08-19T00:59:26;16.42;;;14.52;;
37409;SDS011;23275;48.914;12.566;2022-08-19T01:01:54;15.32;;;13.70;;
37409;SDS011;23275;48.914;12.566;2022-08-19T01:04:19;17.17;;;14.48;;
37409;SDS011;23275;48.914;12.566;2022-08-19T01:06:45;17.67;;;13.93;;
37409;SDS011;23275;48.914;12.566;2022-08-19T01:09:10;16.33;;;12.85;;
37409;SDS011;23275;48.914;12.566;2022-08-19T01:11:38;16.85;;;13.50;;
37409;SDS011;23275;48.914;12.566;2022-08-19T01:14:07;15.18;;;13.48;;
37409;SDS011;23275;48.914;12.566;2022-08-19T01:16:33;15.27;;;13.65;;
37409;SDS011;23275;48.914;12.566;2022-08-19T01:19:00;17.58;;;15.23;;
37409;SDS011;23275;48.914;12.566;2022-08-19T01:21:30;17.35;;;14.43;;
37409;SDS011;23275;48.914;12.566;2022-08-19T01:23:59;15.43;;;13.70;;
37409;SDS011;23275;48.914;12.566;2022-08-19T01:26:25;16.50;;;13.98;;
37409;SDS011;23275;48.914;12.566;2022-08-19T01:28:53;17.55;;;14.48;;
37409;SDS011;23275;48.914;12.566;2022-08-19T01:31:22;14.63;;;13.15;;
37409;SDS011;23275;48.914;12.566;2022-08-19T01:33:51;14.67;;;12.83;;
37409;SDS011;23275;48.914;12.566;2022-08-19T01:38:52;14.63;;;13.13;;
37409;SDS011;23275;48.914;12.566;2022-08-19T01:41:18;14.68;;;13.15;;
37409;SDS011;23275;48.914;12.566;2022-08-19T01:43:43;15.25;;;13.75;;
37409;SDS011;23275;48.914;12.566;2022-08-19T01:46:10;13.93;;;12.48;;
37409;SDS011;23275;48.914;12.566;2022-08-19T01:48:39;15.90;;;13.63;;
37409;SDS011;23275;48.914;12.566;2022-08-19T01:51:07;16.30;;;14.55;;
37409;SDS011;23275;48.914;12.566;2022-08-19T01:53:33;19.17;;;15.00;;
37409;SDS011;23275;48.914;12.566;2022-08-19T01:55:59;18.05;;;15.23;;
37409;SDS011;23275;48.914;12.566;2022-08-19T01:58:27;16.65;;;14.95;;
37409;SDS011;23275;48.914;12.566;2022-08-19T02:00:57;17.25;;;15.13;;
37409;SDS011;23275;48.914;12.566;2022-08-19T02:03:23;17.45;;;15.45;;
37409;SDS011;23275;48.914;12.566;2022-08-19T02:05:53;19.38;;;16.15;;
37409;SDS011;23275;48.914;12.566;2022-08-19T02:08:25;19.10;;;17.10;;
37409;SDS011;23275;48.914;12.566;2022-08-19T02:10:52;19.45;;;17.45;;
37409;SDS011;23275;48.914;12.566;2022-08-19T02:13:17;18.95;;;16.98;;
37409;SDS011;23275;48.914;12.566;2022-08-19T02:15:43;19.58;;;17.52;;
37409;SDS011;23275;48.914;12.566;2022-08-19T02:18:09;21.10;;;18.40;;
37409;SDS011;23275;48.914;12.566;2022-08-19T02:20:35;19.23;;;17.23;;
37409;SDS011;23275;48.914;12.566;2022-08-19T02:23:02;19.75;;;17.65;;
37409;SDS011;23275;48.914;12.566;2022-08-19T02:25:28;20.70;;;18.05;;
37409;SDS011;23275;48.914;12.566;2022-08-19T02:27:53;20.88;;;17.75;;
37409;SDS011;23275;48.914;12.566;2022-08-19T02:30:19;20.83;;;17.52;;
37409;SDS011;23275;48.914;12.566;2022-08-19T02:32:45;21.17;;;18.45;;
37409;SDS011;23275;48.914;12.566;2022-08-19T02:35:12;23.73;;;19.27;;
37409;SDS011;23275;48.914;12.566;2022-08-19T02:37:38;23.25;;;20.10;;
37409;SDS011;23275;48.914;12.566;2022-08-19T02:40:22;22.83;;;19.67;;
37409;SDS011;23275;48.914;12.566;2022-08-19T02:42:48;22.02;;;19.75;;
37409;SDS011;23275;48.914;12.566;2022-08-19T02:45:14;22.08;;;18.80;;
37409;SDS011;23275;48.914;12.566;2022-08-19T02:47:40;22.08;;;19.20;;
37409;SDS011;23275;48.914;12.566;2022-08-19T02:50:06;22.45;;;19.65;;
37409;SDS011;23275;48.914;12.566;2022-08-19T02:52:32;23.27;;;19.95;;
37409;SDS011;23275;48.914;12.566;2022-08-19T02:54:59;21.52;;;19.33;;
37409;SDS011;23275;48.914;12.566;2022-08-19T02:57:25;22.90;;;20.50;;
37409;SDS011;23275;48.914;12.566;2022-08-19T02:59:51;24.77;;;21.15;;
37409;SDS011;23275;48.914;12.566;2022-08-19T03:02:17;26.83;;;21.83;;
37409;SDS011;23275;48.914;12.566;2022-08-19T03:04:42;28.42;;;22.52;;
37409;SDS011;23275;48.914;12.566;2022-08-19T03:07:09;28.90;;;22.50;;
37409;SDS011;23275;48.914;12.566;2022-08-19T03:09:38;26.48;;;22.92;;
37409;SDS011;23275;48.914;12.566;2022-08-19T03:12:04;26.08;;;22.92;;
37409;SDS011;23275;48.914;12.566;2022-08-19T03:14:31;27.73;;;22.90;;
37409;SDS011;23275;48.914;12.566;2022-08-19T03:16:57;25.55;;;21.77;;
37409;SDS011;23275;48.914;12.566;2022-08-19T03:19:23;29.13;;;24.77;;
37409;SDS011;23275;48.914;12.566;2022-08-19T03:21:49;25.63;;;23.00;;
37409;SDS011;23275;48.914;12.566;2022-08-19T03:24:16;30.55;;;25.00;;
37409;SDS011;23275;48.914;12.566;2022-08-19T03:26:43;25.23;;;22.70;;
37409;SDS011;23275;48.914;12.566;2022-08-19T03:29:17;27.77;;;24.42;;
37409;SDS011;23275;48.914;12.566;2022-08-19T03:31:45;27.98;;;23.70;;
37409;SDS011;23275;48.914;12.566;2022-08-19T03:34:11;26.15;;;23.48;;
37409;SDS011;23275;48.914;12.566;2022-08-19T03:36:39;25.17;;;21.88;;
37409;SDS011;23275;48.914;12.566;2022-08-19T03:39:04;26.83;;;23.92;;
37409;SDS011;23275;48.914;12.566;2022-08-19T03:41:31;24.45;;;21.85;;
37409;SDS011;23275;48.914;12.566;2022-08-19T03:44:02;25.98;;;21.98;;
37409;SDS011;23275;48.914;12.566;2022-08-19T03:46:30;25.27;;;22.58;;
37409;SDS011;23275;48.914;12.566;2022-08-19T03:48:58;23.33;;;20.88;;
37409;SDS011;23275;48.914;12.566;2022-08-19T03:51:31;23.83;;;21.25;;
37409;SDS011;23275;48.914;12.566;2022-08-19T03:54:04;23.63;;;21.17;;
37409;SDS011;23275;48.914;12.566;2022-08-19T03:56:35;26.05;;;21.85;;
37409;SDS011;23275;48.914;12.566;2022-08-19T03:59:02;23.00;;;20.60;;
37409;SDS011;23275;48.914;12.566;2022-08-19T04:01:28;24.23;;;21.73;;
37409;SDS011;23275;48.914;12.566;2022-08-19T04:03:55;24.13;;;21.58;;
37409;SDS011;23275;48.914;12.566;2022-08-19T04:06:23;26.35;;;23.55;;
37409;SDS011;23275;48.914;12.566;2022-08-19T04:09:00;24.42;;;20.83;;
37409;SDS011;23275;48.914;12.566;2022-08-19T04:11:29;24.70;;;22.08;;
37409;SDS011;23275;48.914;12.566;2022-08-19T04:13:58;25.92;;;21.33;;
37409;SDS011;23275;48.914;12.566;2022-08-19T04:16:25;24.13;;;21.58;;
37409;SDS011;23275;48.914;12.566;2022-08-19T04:18:54;27.02;;;21.95;;
37409;SDS011;23275;48.914;12.566;2022-08-19T04:21:22;26.95;;;23.48;;
37409;SDS011;23275;48.914;12.566;2022-08-19T04:23:52;25.25;;;22.55;;
37409;SDS011;23275;48.914;12.566;2022-08-19T04:26:37;24.58;;;22.08;;
37409;SDS011;23275;48.914;12.566;2022-08-19T04:29:05;24.95;;;22.33;;
37409;SDS011;23275;48.914;12.566;2022-08-19T04:31:33;25.48;;;22.88;;
37409;SDS011;23275;48.914;12.566;2022-08-19T04:34:03;24.58;;;21.83;;
37409;SDS011;23275;48.914;12.566;2022-08-19T04:36:35;24.48;;;21.85;;
37409;SDS011;23275;48.914;12.566;2022-08-19T04:39:06;23.17;;;20.63;;
37409;SDS011;23275;48.914;12.566;2022-08-19T04:41:33;24.65;;;21.90;;
37409;SDS011;23275;48.914;12.566;2022-08-19T04:44:18;24.75;;;22.27;;
37409;SDS011;23275;48.914;12.566;2022-08-19T04:46:44;23.85;;;21.27;;
37409;SDS011;23275;48.914;12.566;2022-08-19T04:49:12;23.65;;;21.25;;
37409;SDS011;23275;48.914;12.566;2022-08-19T04:51:39;23.50;;;21.00;;
37409;SDS011;23275;48.914;12.566;2022-08-19T04:54:07;22.23;;;19.98;;
37409;SDS011;23275;48.914;12.566;2022-08-19T04:56:32;23.02;;;20.55;;
37409;SDS011;23275;48.914;12.566;2022-08-19T04:58:59;24.58;;;21.98;;
37409;SDS011;23275;48.914;12.566;2022-08-19T05:01:28;24.00;;;20.50;;
37409;SDS011;23275;48.914;12.566;2022-08-19T05:03:56;24.30;;;21.33;;
37409;SDS011;23275;48.914;12.566;2022-08-19T05:06:23;22.98;;;20.52;;
37409;SDS011;23275;48.914;12.566;2022-08-19T05:08:49;21.45;;;19.23;;
37409;SDS011;23275;48.914;12.566;2022-08-19T05:11:34;23.80;;;20.27;;
37409;SDS011;23275;48.914;12.566;2022-08-19T05:14:03;22.50;;;20.13;;
37409;SDS011;23275;48.914;12.566;2022-08-19T05:16:29;20.85;;;18.65;;
37409;SDS011;23275;48.914;12.566;2022-08-19T05:18:55;21.50;;;18.38;;
37409;SDS011;23275;48.914;12.566;2022-08-19T05:21:40;22.52;;;20.13;;
37409;SDS011;23275;48.914;12.566;2022-08-19T05:24:25;22.38;;;19.98;;
37409;SDS011;23275;48.914;12.566;2022-08-19T05:26:52;21.08;;;18.90;;
37409;SDS011;23275;48.914;12.566;2022-08-19T05:29:22;21.53;;;19.33;;
37409;SDS011;23275;48.914;12.566;2022-08-19T05:31:49;21.77;;;19.63;;
37409;SDS011;23275;48.914;12.566;2022-08-19T05:34:17;23.35;;;20.17;;
37409;SDS011;23275;48.914;12.566;2022-08-19T05:36:46;22.13;;;19.80;;
37409;SDS011;23275;48.914;12.566;2022-08-19T05:39:14;25.45;;;20.75;;
37409;SDS011;23275;48.914;12.566;2022-08-19T05:41:43;25.60;;;23.00;;
37409;SDS011;23275;48.914;12.566;2022-08-19T05:44:14;28.13;;;25.00;;
37409;SDS011;23275;48.914;12.566;2022-08-19T05:46:42;23.45;;;20.98;;
37409;SDS011;23275;48.914;12.566;2022-08-19T05:49:08;22.75;;;20.45;;
37409;SDS011;23275;48.914;12.566;2022-08-19T05:51:35;22.90;;;20.60;;
37409;SDS011;23275;48.914;12.566;2022-08-19T05:54:04;24.70;;;21.88;;
37409;SDS011;23275;48.914;12.566;2022-08-19T05:56:32;22.67;;;20.40;;
37409;SDS011;23275;48.914;12.566;2022-08-19T05:59:01;22.00;;;19.70;;
37409;SDS011;23275;48.914;12.566;2022-08-19T06:01:28;21.75;;;19.55;;
37409;SDS011;23275;48.914;12.566;2022-08-19T06:03:54;21.58;;;19.35;;
37409;SDS011;23275;48.914;12.566;2022-08-19T06:06:20;22.15;;;19.85;;
37409;SDS011;23275;48.914;12.566;2022-08-19T06:08:45;22.65;;;20.25;;
37409;SDS011;23275;48.914;12.566;2022-08-19T06:11:31;23.13;;;20.90;;
37409;SDS011;23275;48.914;12.566;2022-08-19T06:13:59;22.98;;;20.65;;
37409;SDS011;23275;48.914;12.566;2022-08-19T06:16:28;22.77;;;20.17;;
37409;SDS011;23275;48.914;12.566;2022-08-19T06:18:56;23.83;;;20.88;;
37409;SDS011;23275;48.914;12.566;2022-08-19T06:21:28;21.63;;;19.17;;
37409;SDS011;23275;48.914;12.566;2022-08-19T06:23:55;22.77;;;19.40;;
37409;SDS011;23275;48.914;12.566;2022-08-19T06:26:21;23.33;;;20.83;;
37409;SDS011;23275;48.914;12.566;2022-08-19T06:28:49;22.17;;;19.88;;
37409;SDS011;23275;48.914;12.566;2022-08-19T06:31:15;20.08;;;17.98;;
37409;SDS011;23275;48.914;12.566;2022-08-19T06:33:44;20.73;;;18.65;;
37409;SDS011;23275;48.914;12.566;2022-08-19T06:39:04;23.83;;;21.33;;
37409;SDS011;23275;48.914;12.566;2022-08-19T06:41:34;21.60;;;19.33;;
37409;SDS011;23275;48.914;12.566;2022-08-19T06:44:04;23.17;;;20.75;;
37409;SDS011;23275;48.914;12.566;2022-08-19T06:46:30;22.20;;;19.25;;
37409;SDS011;23275;48.914;12.566;2022-08-19T06:48:56;22.88;;;20.02;;
37409;SDS011;23275;48.914;12.566;2022-08-19T06:51:22;22.55;;;19.13;;
37409;SDS011;23275;48.914;12.566;2022-08-19T06:53:49;23.40;;;21.00;;
37409;SDS011;23275;48.914;12.566;2022-08-19T06:56:17;23.20;;;20.67;;
37409;SDS011;23275;48.914;12.566;2022-08-19T06:58:46;22.25;;;19.85;;
37409;SDS011;23275;48.914;12.566;2022-08-19T07:01:16;22.02;;;19.73;;
37409;SDS011;23275;48.914;12.566;2022-08-19T07:03:42;21.77;;;19.55;;
37409;SDS011;23275;48.914;12.566;2022-08-19T07:06:09;22.52;;;20.23;;
37409;SDS011;23275;48.914;12.566;2022-08-19T07:08:37;21.20;;;18.70;;
37409;SDS011;23275;48.914;12.566;2022-08-19T07:11:09;22.02;;;19.73;;
37409;SDS011;23275;48.914;12.566;2022-08-19T07:16:03;20.55;;;18.17;;
37409;SDS011;23275;48.914;12.566;2022-08-19T07:18:33;23.55;;;20.00;;
37409;SDS011;23275;48.914;12.566;2022-08-19T07:21:04;21.85;;;19.65;;
37409;SDS011;23275;48.914;12.566;2022-08-19T07:23:31;21.30;;;19.00;;
37409;SDS011;23275;48.914;12.566;2022-08-19T07:25:58;25.42;;;19.45;;
37409;SDS011;23275;48.914;12.566;2022-08-19T07:28:28;22.90;;;20.35;;
37409;SDS011;23275;48.914;12.566;2022-08-19T07:30:54;20.08;;;17.98;;
37409;SDS011;23275;48.914;12.566;2022-08-19T07:33:20;20.05;;;17.98;;
37409;SDS011;23275;48.914;12.566;2022-08-19T07:35:47;21.92;;;19.67;;
37409;SDS011;23275;48.914;12.566;2022-08-19T07:38:15;22.42;;;20.08;;
37409;SDS011;23275;48.914;12.566;2022-08-19T07:40:41;21.00;;;18.40;;
37409;SDS011;23275;48.914;12.566;2022-08-19T07:43:07;20.17;;;18.05;;
37409;SDS011;23275;48.914;12.566;2022-08-19T07:45:33;23.30;;;18.50;;
37409;SDS011;23275;48.914;12.566;2022-08-19T07:48:06;21.15;;;18.63;;
37409;SDS011;23275;48.914;12.566;2022-08-19T07:50:31;19.30;;;17.30;;
37409;SDS011;23275;48.914;12.566;2022-08-19T07:52:59;22.00;;;19.63;;
37409;SDS011;23275;48.914;12.566;2022-08-19T07:55:26;20.17;;;17.95;;
37409;SDS011;23275;48.914;12.566;2022-08-19T07:57:52;21.85;;;19.52;;
37409;SDS011;23275;48.914;12.566;2022-08-19T08:00:18;21.45;;;18.60;;
37409;SDS011;23275;48.914;12.566;2022-08-19T08:02:44;22.75;;;18.40;;
37409;SDS011;23275;48.914;12.566;2022-08-19T08:05:11;22.77;;;18.55;;
37409;SDS011;23275;48.914;12.566;2022-08-19T08:07:57;21.38;;;19.17;;
37409;SDS011;23275;48.914;12.566;2022-08-19T08:10:41;20.05;;;17.95;;
37409;SDS011;23275;48.914;12.566;2022-08-19T08:13:08;20.45;;;18.25;;
37409;SDS011;23275;48.914;12.566;2022-08-19T08:15:37;18.48;;;16.58;;
37409;SDS011;23275;48.914;12.566;2022-08-19T08:18:06;19.40;;;16.98;;
37409;SDS011;23275;48.914;12.566;2022-08-19T08:20:32;19.08;;;17.10;;
37409;SDS011;23275;48.914;12.566;2022-08-19T08:22:58;18.90;;;17.00;;
37409;SDS011;23275;48.914;12.566;2022-08-19T08:25:42;18.20;;;16.13;;
37409;SDS011;23275;48.914;12.566;2022-08-19T08:28:07;19.52;;;16.88;;
37409;SDS011;23275;48.914;12.566;2022-08-19T08:30:34;19.02;;;16.98;;
37409;SDS011;23275;48.914;12.566;2022-08-19T08:33:01;19.92;;;17.58;;
37409;SDS011;23275;48.914;12.566;2022-08-19T08:35:27;19.80;;;17.70;;
37409;SDS011;23275;48.914;12.566;2022-08-19T08:37:54;18.48;;;15.75;;
37409;SDS011;23275;48.914;12.566;2022-08-19T08:42:54;17.20;;;15.43;;
37409;SDS011;23275;48.914;12.566;2022-08-19T08:45:30;17.80;;;15.75;;
37409;SDS011;23275;48.914;12.566;2022-08-19T08:48:01;19.80;;;15.73;;
37409;SDS011;23275;48.914;12.566;2022-08-19T08:50:33;17.30;;;15.50;;
37409;SDS011;23275;48.914;12.566;2022-08-19T08:53:03;19.10;;;15.27;;
37409;SDS011;23275;48.914;12.566;2022-08-19T08:55:32;17.83;;;14.32;;
37409;SDS011;23275;48.914;12.566;2022-08-19T08:58:03;16.88;;;13.88;;
37409;SDS011;23275;48.914;12.566;2022-08-19T09:00:35;14.98;;;13.27;;
37409;SDS011;23275;48.914;12.566;2022-08-19T09:03:03;15.82;;;14.15;;
37409;SDS011;23275;48.914;12.566;2022-08-19T09:06:10;14.32;;;12.70;;
37409;SDS011;23275;48.914;12.566;2022-08-19T09:16:56;19.77;;;17.17;;
37409;SDS011;23275;48.914;12.566;2022-08-19T09:19:22;23.00;;;18.33;;
37409;SDS011;23275;48.914;12.566;2022-08-19T09:21:48;23.20;;;17.92;;
37409;SDS011;23275;48.914;12.566;2022-08-19T09:24:15;22.45;;;16.88;;
37409;SDS011;23275;48.914;12.566;2022-08-19T09:26:47;21.00;;;18.65;;
37409;SDS011;23275;48.914;12.566;2022-08-19T09:29:13;20.38;;;16.67;;
37409;SDS011;23275;48.914;12.566;2022-08-19T09:31:39;20.55;;;17.23;;
37409;SDS011;23275;48.914;12.566;2022-08-19T09:34:04;20.75;;;17.05;;
37409;SDS011;23275;48.914;12.566;2022-08-19T09:36:30;19.90;;;17.80;;
37409;SDS011;23275;48.914;12.566;2022-08-19T09:39:01;22.10;;;18.67;;
37409;SDS011;23275;48.914;12.566;2022-08-19T09:41:28;21.08;;;18.75;;
37409;SDS011;23275;48.914;12.566;2022-08-19T09:43:55;21.98;;;18.30;;
37409;SDS011;23275;48.914;12.566;2022-08-19T09:46:23;22.30;;;18.63;;
37409;SDS011;23275;48.914;12.566;2022-08-19T09:48:50;22.63;;;19.52;;
37409;SDS011;23275;48.914;12.566;2022-08-19T09:51:18;20.90;;;18.77;;
37409;SDS011;23275;48.914;12.566;2022-08-19T09:53:47;20.98;;;17.58;;
37409;SDS011;23275;48.914;12.566;2022-08-19T09:56:19;21.48;;;18.50;;
37409;SDS011;23275;48.914;12.566;2022-08-19T09:58:53;24.65;;;17.98;;
37409;SDS011;23275;48.914;12.566;2022-08-19T10:01:19;19.75;;;16.92;;
37409;SDS011;23275;48.914;12.566;2022-08-19T10:03:51;21.65;;;16.33;;
37409;SDS011;23275;48.914;12.566;2022-08-19T10:06:28;17.90;;;15.95;;
37409;SDS011;23275;48.914;12.566;2022-08-19T10:08:58;20.08;;;17.90;;
37409;SDS011;23275;48.914;12.566;2022-08-19T10:11:24;22.13;;;17.10;;
37409;SDS011;23275;48.914;12.566;2022-08-19T10:13:51;19.83;;;16.77;;
37409;SDS011;23275;48.914;12.566;2022-08-19T10:16:18;17.95;;;16.05;;
37409;SDS011;23275;48.914;12.566;2022-08-19T10:18:47;19.48;;;17.38;;
37409;SDS011;23275;48.914;12.566;2022-08-19T10:21:15;20.65;;;17.83;;
37409;SDS011;23275;48.914;12.566;2022-08-19T10:23:43;22.13;;;16.50;;
37409;SDS011;23275;48.914;12.566;2022-08-19T10:26:12;19.55;;;16.33;;
37409;SDS011;23275;48.914;12.566;2022-08-19T10:28:40;18.83;;;15.77;;
37409;SDS011;23275;48.914;12.566;2022-08-19T10:31:07;17.38;;;14.52;;
37409;SDS011;23275;48.914;12.566;2022-08-19T10:33:35;18.35;;;16.15;;
37409;SDS011;23275;48.914;12.566;2022-08-19T10:36:14;19.48;;;16.20;;
37409;SDS011;23275;48.914;12.566;2022-08-19T10:38:43;18.73;;;16.50;;
37409;SDS011;23275;48.914;12.566;2022-08-19T10:41:11;19.10;;;16.58;;
37409;SDS011;23275;48.914;12.566;2022-08-19T10:43:47;20.27;;;15.90;;
37409;SDS011;23275;48.914;12.566;2022-08-19T10:46:17;20.90;;;16.38;;
37409;SDS011;23275;48.914;12.566;2022-08-19T10:48:46;21.75;;;16.05;;
37409;SDS011;23275;48.914;12.566;2022-08-19T10:51:11;21.17;;;16.15;;
37409;SDS011;23275;48.914;12.566;2022-08-19T10:53:56;21.08;;;16.83;;
37409;SDS011;23275;48.914;12.566;2022-08-19T10:56:25;19.50;;;17.48;;
37409;SDS011;23275;48.914;12.566;2022-08-19T10:59:14;18.75;;;15.25;;
37409;SDS011;23275;48.914;12.566;2022-08-19T11:01:41;17.77;;;15.30;;
37409;SDS011;23275;48.914;12.566;2022-08-19T11:04:08;19.10;;;15.55;;
37409;SDS011;23275;48.914;12.566;2022-08-19T11:06:38;18.25;;;15.60;;
37409;SDS011;23275;48.914;12.566;2022-08-19T11:09:08;15.85;;;14.15;;
37409;SDS011;23275;48.914;12.566;2022-08-19T11:11:37;19.70;;;17.17;;
37409;SDS011;23275;48.914;12.566;2022-08-19T11:14:09;19.10;;;16.38;;
37409;SDS011;23275;48.914;12.566;2022-08-19T11:19:03;18.70;;;16.13;;
37409;SDS011;23275;48.914;12.566;2022-08-19T11:21:30;17.60;;;15.35;;
37409;SDS011;23275;48.914;12.566;2022-08-19T11:23:59;17.80;;;14.95;;
37409;SDS011;23275;48.914;12.566;2022-08-19T11:26:27;19.75;;;15.65;;
37409;SDS011;23275;48.914;12.566;2022-08-19T11:28:54;19.25;;;15.98;;
37409;SDS011;23275;48.914;12.566;2022-08-19T11:31:21;18.05;;;15.07;;
37409;SDS011;23275;48.914;12.566;2022-08-19T11:33:50;18.27;;;14.77;;
37409;SDS011;23275;48.914;12.566;2022-08-19T11:36:16;13.93;;;12.30;;
37409;SDS011;23275;48.914;12.566;2022-08-19T11:38:42;15.18;;;13.35;;
37409;SDS011;23275;48.914;12.566;2022-08-19T11:41:08;14.98;;;12.73;;
37409;SDS011;23275;48.914;12.566;2022-08-19T11:43:34;15.40;;;11.23;;
37409;SDS011;23275;48.914;12.566;2022-08-19T11:46:04;13.07;;;11.00;;
37409;SDS011;23275;48.914;12.566;2022-08-19T11:48:32;13.73;;;12.20;;
37409;SDS011;23275;48.914;12.566;2022-08-19T11:50:58;15.45;;;12.55;;
37409;SDS011;23275;48.914;12.566;2022-08-19T11:53:24;13.27;;;11.85;;
37409;SDS011;23275;48.914;12.566;2022-08-19T11:55:50;16.52;;;12.02;;
37409;SDS011;23275;48.914;12.566;2022-08-19T11:58:20;14.35;;;12.77;;
37409;SDS011;23275;48.914;12.566;2022-08-19T12:00:47;13.65;;;12.25;;
37409;SDS011;23275;48.914;12.566;2022-08-19T12:03:13;15.40;;;11.95;;
37409;SDS011;23275;48.914;12.566;2022-08-19T12:05:39;13.70;;;12.07;;
37409;SDS011;23275;48.914;12.566;2022-08-19T12:08:14;13.23;;;11.52;;
37409;SDS011;23275;48.914;12.566;2022-08-19T12:10:43;15.48;;;11.90;;
37409;SDS011;23275;48.914;12.566;2022-08-19T12:13:11;15.57;;;11.98;;
37409;SDS011;23275;48.914;12.566;2022-08-19T12:15:46;12.57;;;11.20;;
37409;SDS011;23275;48.914;12.566;2022-08-19T12:18:12;13.43;;;11.35;;
37409;SDS011;23275;48.914;12.566;2022-08-19T12:20:39;11.75;;;10.52;;
37409;SDS011;23275;48.914;12.566;2022-08-19T12:23:07;12.63;;;10.65;;
37409;SDS011;23275;48.914;12.566;2022-08-19T12:25:36;11.25;;;10.15;;
37409;SDS011;23275;48.914;12.566;2022-08-19T12:28:08;13.48;;;10.25;;
37409;SDS011;23275;48.914;12.566;2022-08-19T12:30:34;11.65;;;9.93;;
37409;SDS011;23275;48.914;12.566;2022-08-19T12:33:03;10.52;;;9.38;;
37409;SDS011;23275;48.914;12.566;2022-08-19T12:35:28;11.90;;;9.68;;
37409;SDS011;23275;48.914;12.566;2022-08-19T12:37:55;12.63;;;10.60;;
37409;SDS011;23275;48.914;12.566;2022-08-19T12:40:21;10.30;;;9.30;;
37409;SDS011;23275;48.914;12.566;2022-08-19T12:42:46;12.80;;;10.57;;
37409;SDS011;23275;48.914;12.566;2022-08-19T12:45:14;13.85;;;10.68;;
37409;SDS011;23275;48.914;12.566;2022-08-19T12:47:39;11.75;;;10.18;;
37409;SDS011;23275;48.914;12.566;2022-08-19T12:50:08;11.82;;;10.60;;
37409;SDS011;23275;48.914;12.566;2022-08-19T12:52:40;10.55;;;9.38;;
37409;SDS011;23275;48.914;12.566;2022-08-19T12:55:07;10.40;;;9.18;;
37409;SDS011;23275;48.914;12.566;2022-08-19T12:57:39;13.20;;;10.02;;
37409;SDS011;23275;48.914;12.566;2022-08-19T13:00:11;10.48;;;9.27;;
37409;SDS011;23275;48.914;12.566;2022-08-19T13:02:41;11.75;;;9.18;;
37409;SDS011;23275;48.914;12.566;2022-08-19T13:05:10;11.57;;;9.80;;
37409;SDS011;23275;48.914;12.566;2022-08-19T13:07:45;11.85;;;9.50;;
37409;SDS011;23275;48.914;12.566;2022-08-19T13:10:13;15.75;;;10.65;;
37409;SDS011;23275;48.914;12.566;2022-08-19T13:12:40;15.30;;;10.80;;
37409;SDS011;23275;48.914;12.566;2022-08-19T13:15:07;11.57;;;10.45;;
37409;SDS011;23275;48.914;12.566;2022-08-19T13:17:33;12.93;;;10.38;;
37409;SDS011;23275;48.914;12.566;2022-08-19T13:19:59;12.25;;;10.02;;
37409;SDS011;23275;48.914;12.566;2022-08-19T13:22:25;13.00;;;10.15;;
37409;SDS011;23275;48.914;12.566;2022-08-19T13:24:52;11.93;;;9.43;;
37409;SDS011;23275;48.914;12.566;2022-08-19T13:27:17;11.25;;;8.23;;
37409;SDS011;23275;48.914;12.566;2022-08-19T13:29:43;11.05;;;8.68;;
37409;SDS011;23275;48.914;12.566;2022-08-19T13:32:28;9.40;;;8.40;;
37409;SDS011;23275;48.914;12.566;2022-08-19T13:35:12;11.15;;;8.52;;
37409;SDS011;23275;48.914;12.566;2022-08-19T13:37:38;8.38;;;7.57;;
37409;SDS011;23275;48.914;12.566;2022-08-19T13:40:08;11.13;;;8.35;;
37409;SDS011;23275;48.914;12.566;2022-08-19T13:42:42;10.05;;;8.38;;
37409;SDS011;23275;48.914;12.566;2022-08-19T13:45:08;9.05;;;7.25;;
37409;SDS011;23275;48.914;12.566;2022-08-19T13:47:35;9.18;;;7.53;;
37409;SDS011;23275;48.914;12.566;2022-08-19T13:50:11;10.90;;;7.75;;
37409;SDS011;23275;48.914;12.566;2022-08-19T13:52:39;12.80;;;8.15;;
37409;SDS011;23275;48.914;12.566;2022-08-19T13:55:05;7.70;;;7.00;;
37409;SDS011;23275;48.914;12.566;2022-08-19T13:57:31;8.65;;;7.40;;
37409;SDS011;23275;48.914;12.566;2022-08-19T13:59:57;9.02;;;7.45;;
37409;SDS011;23275;48.914;12.566;2022-08-19T14:02:24;8.27;;;7.47;;
37409;SDS011;23275;48.914;12.566;2022-08-19T14:04:51;10.65;;;7.03;;
37409;SDS011;23275;48.914;12.566;2022-08-19T14:07:17;8.70;;;7.05;;
37409;SDS011;23275;48.914;12.566;2022-08-19T14:09:42;8.88;;;7.22;;
37409;SDS011;23275;48.914;12.566;2022-08-19T14:12:08;7.57;;;6.53;;
37409;SDS011;23275;48.914;12.566;2022-08-19T14:14:39;9.52;;;6.70;;
37409;SDS011;23275;48.914;12.566;2022-08-19T14:17:06;9.05;;;7.15;;
37409;SDS011;23275;48.914;12.566;2022-08-19T14:19:32;10.73;;;6.63;;
37409;SDS011;23275;48.914;12.566;2022-08-19T14:21:58;7.72;;;6.88;;
37409;SDS011;23275;48.914;12.566;2022-08-19T14:24:23;9.40;;;6.90;;
37409;SDS011;23275;48.914;12.566;2022-08-19T14:26:49;7.55;;;6.40;;
37409;SDS011;23275;48.914;12.566;2022-08-19T14:29:15;7.40;;;6.45;;
37409;SDS011;23275;48.914;12.566;2022-08-19T14:31:41;7.45;;;6.65;;
37409;SDS011;23275;48.914;12.566;2022-08-19T14:34:08;7.95;;;6.18;;
37409;SDS011;23275;48.914;12.566;2022-08-19T14:36:35;16.63;;;8.52;;
37409;SDS011;23275;48.914;12.566;2022-08-19T14:39:04;8.85;;;6.95;;